Home   Weather   United Kingdom   Durham   Past weeks
Flag for United Kingdom

Past Weather in Durham, England, United Kingdom — Yesterday and Last 2 Weeks

Currently: 61 °F. Partly sunny. (Weather station: Newcastle, United Kingdom). See more current weather

Past Weather in Durham — Graph

°F

Durham Temperature Yesterday

Maximum temperature yesterday: 61 °F (at 10:50 am)
Minimum temperature yesterday: 46 °F (at 4:50 am)
Average temperature yesterday: 55 °F

High & Low Weather Summary for the Past Weeks

 TemperatureHumidityPressure
High73 °F (Jun 9, 1:20 pm)100% (Jun 5, 4:50 am)30.27 "Hg (Jun 5, 4:50 am)
Low43 °F (Jun 5, 3:20 am)35% (Jun 15, 6:20 pm)29.77 "Hg (Jun 16, 1:50 pm)
Average60 °F72%30.08 "Hg
* Reported Jun 4 1:20 pm — Jun 19 1:20 pm, Durham. Weather by CustomWeather, © 2021

Note: Actual official high and low records may vary slightly from our data, if they occured in-between our weather recording intervals... More about our weather records

Durham Weather History for the Previous 24 Hours

Scroll right to see more
 ConditionsComfort  
Time TempWeatherWind HumidityBarometerVisibility
1:20 pm
Sat, Jun 19
61 °FMostly cloudy.8 mph68%29.95 "HgN/A
12:50 pm61 °FScattered clouds.7 mph68%29.98 "HgN/A
12:20 pm63 °FScattered clouds.6 mph59%29.98 "HgN/A
11:50 am61 °FPartly sunny.3 mph68%29.98 "HgN/A
11:20 am61 °FScattered clouds.2 mph59%29.98 "HgN/A
10:50 am61 °FScattered clouds.5 mph63%30.01 "HgN/A
10:20 am61 °FPassing clouds.5 mph63%30.01 "HgN/A
9:50 am63 °FPassing clouds.3 mph59%30.01 "HgN/A
9:20 am59 °FPassing clouds.3 mph68%30.01 "HgN/A
8:50 am59 °FPassing clouds.2 mph72%29.98 "HgN/A
8:20 am55 °FPassing clouds.1 mph94%29.98 "HgN/A
7:50 am54 °FPassing clouds.1 mph100%29.98 "HgN/A
7:20 am52 °FPassing clouds.1 mph100%30.01 "Hg4 mi
6:50 am52 °FFog.No wind100%30.01 "Hg2 mi
6:20 am50 °FFog.2 mph94%30.01 "Hg0 mi
5:50 am50 °FFog.1 mph100%30.01 "Hg0 mi
5:20 am48 °FFog.1 mph100%29.98 "Hg0 mi
4:50 am50 °FFog.2 mph100%29.98 "Hg0 mi
4:20 am48 °FFog.2 mph100%29.98 "Hg0 mi
3:50 am46 °FFog.1 mph100%29.98 "Hg0 mi
3:20 am45 °FFog.No wind100%30.01 "Hg2 mi
2:50 am45 °FFog.No wind100%30.01 "Hg0 mi
2:20 am45 °FFog.No wind100%30.01 "Hg0 mi
1:50 am46 °FPassing clouds.1 mph100%30.01 "HgN/A
1:20 am50 °FFog.No wind94%30.01 "Hg2 mi
12:50 am52 °FFog.1 mph100%30.01 "Hg0 mi
12:20 am50 °FLow clouds.No wind100%30.01 "Hg5 mi
11:50 pm
Fri, Jun 18
50 °FOvercast.No wind100%30.01 "Hg6 mi
11:20 pm52 °FPassing clouds.2 mph94%30.01 "HgN/A
10:50 pm54 °FPartly cloudy.2 mph100%30.04 "HgN/A
10:20 pm55 °FPartly cloudy.2 mph94%30.04 "HgN/A
9:50 pm55 °FPassing clouds.2 mph94%30.04 "HgN/A
9:20 pm55 °FPartly sunny.5 mph94%30.04 "HgN/A
8:50 pm57 °FPartly sunny.6 mph88%30.04 "HgN/A
8:20 pm57 °FPartly sunny.8 mph82%30.04 "HgN/A
7:50 pm59 °FPartly sunny.7 mph77%30.04 "HgN/A
7:20 pm57 °FPartly sunny.8 mph82%30.04 "HgN/A
6:50 pm57 °FPartly sunny.10 mph82%30.04 "HgN/A
6:20 pm59 °FPartly sunny.10 mph77%30.04 "HgN/A
5:50 pm57 °FPartly sunny.13 mph82%30.04 "HgN/A
5:20 pm57 °FPartly sunny.13 mph77%30.04 "HgN/A
4:50 pm57 °FScattered clouds.13 mph77%30.04 "HgN/A
4:20 pm57 °FScattered clouds.13 mph77%30.04 "HgN/A
3:50 pm59 °FScattered clouds.12 mph72%30.07 "HgN/A
3:20 pm59 °FScattered clouds.14 mph72%30.07 "HgN/A
2:50 pm61 °FScattered clouds.13 mph63%30.07 "HgN/A
2:20 pm61 °FScattered clouds.12 mph63%30.07 "HgN/A
Weather by CustomWeather, © 2021

See weather overview